createdAt,value
2019-05-15T00:00:40.253Z,6.53
2019-05-15T00:03:10.281Z,7.28
2019-05-15T00:05:40.377Z,6.42
2019-05-15T00:08:10.864Z,5.50
2019-05-15T00:10:40.990Z,5.80
2019-05-15T00:13:10.991Z,5.33
2019-05-15T00:15:41.134Z,4.97
2019-05-15T00:18:11.229Z,10.05
2019-05-15T00:20:41.143Z,6.45
2019-05-15T00:23:11.103Z,6.80
2019-05-15T00:25:41.208Z,7.97
2019-05-15T00:28:11.167Z,6.05
2019-05-15T00:30:41.437Z,6.83
2019-05-15T00:33:11.481Z,8.08
2019-05-15T00:35:41.586Z,8.33
2019-05-15T00:38:11.641Z,7.15
2019-05-15T00:40:41.763Z,7.40
2019-05-15T00:43:11.815Z,6.85
2019-05-15T00:45:44.434Z,6.75
2019-05-15T00:48:13.837Z,7.75
2019-05-15T00:50:43.991Z,6.95
2019-05-15T00:53:14.181Z,7.95
2019-05-15T00:55:44.186Z,6.55
2019-05-15T00:58:14.263Z,7.08
2019-05-15T01:00:45.240Z,5.90
2019-05-15T01:03:15.214Z,7.92
2019-05-15T01:05:45.347Z,6.17
2019-05-15T01:08:15.316Z,6.45
2019-05-15T01:10:45.349Z,8.05
2019-05-15T01:13:15.454Z,6.72
2019-05-15T01:15:45.400Z,7.28
2019-05-15T01:18:15.326Z,7.33
2019-05-15T01:20:45.484Z,6.30
2019-05-15T01:23:15.448Z,7.00
2019-05-15T01:25:45.386Z,5.92
2019-05-15T01:28:15.435Z,7.28
2019-05-15T01:30:45.498Z,5.50
2019-05-15T01:33:15.435Z,8.18
2019-05-15T01:35:45.444Z,7.47
2019-05-15T01:38:15.497Z,6.00
2019-05-15T01:40:45.550Z,5.75
2019-05-15T01:43:15.495Z,5.87
2019-05-15T01:45:45.423Z,6.50
2019-05-15T01:48:15.359Z,5.83
2019-05-15T01:50:45.349Z,5.03
2019-05-15T01:53:15.437Z,7.60
2019-05-15T01:55:45.470Z,5.62
2019-05-15T01:58:18.267Z,6.78
2019-05-15T02:00:48.388Z,5.62
2019-05-15T02:03:18.652Z,5.42
2019-05-15T02:05:48.594Z,6.03
2019-05-15T02:08:19.230Z,6.22
2019-05-15T02:10:49.611Z,5.80
2019-05-15T02:13:20.481Z,5.67
2019-05-15T02:15:51.623Z,5.83
2019-05-15T02:18:21.533Z,5.10
2019-05-15T02:20:51.675Z,5.28
2019-05-15T02:23:21.619Z,6.83
2019-05-15T02:25:51.586Z,5.35
2019-05-15T02:28:21.632Z,8.15
2019-05-15T02:30:51.661Z,5.40
2019-05-15T02:33:21.713Z,5.78
2019-05-15T02:35:51.770Z,5.65
2019-05-15T02:38:21.853Z,5.03
2019-05-15T02:40:51.793Z,5.47
2019-05-15T02:43:21.735Z,5.53
2019-05-15T02:45:51.786Z,7.35
2019-05-15T02:48:22.091Z,5.58
2019-05-15T02:50:52.095Z,5.75
2019-05-15T02:53:22.036Z,5.28
2019-05-15T02:55:51.971Z,5.50
2019-05-15T02:58:22.019Z,5.10
2019-05-15T03:00:53.681Z,6.15
2019-05-15T03:03:23.798Z,7.33
2019-05-15T03:05:53.822Z,7.00
2019-05-15T03:08:23.865Z,5.45
2019-05-15T03:10:53.846Z,5.25
2019-05-15T03:13:24.629Z,4.90
2019-05-15T03:15:54.703Z,4.75
2019-05-15T03:18:24.669Z,5.22
2019-05-15T03:20:54.698Z,5.17
2019-05-15T03:23:24.797Z,5.80
2019-05-15T03:25:54.814Z,5.50
2019-05-15T03:28:24.755Z,4.58
2019-05-15T03:33:29.696Z,4.17
2019-05-15T03:36:02.748Z,4.35
2019-05-15T03:38:31.298Z,3.92
2019-05-15T03:41:01.426Z,4.28
2019-05-15T03:43:31.439Z,4.72
2019-05-15T03:46:02.039Z,4.28
2019-05-15T03:48:32.087Z,3.77
2019-05-15T03:51:02.032Z,5.25
2019-05-15T03:53:31.993Z,5.22
2019-05-15T03:56:02.875Z,4.72
2019-05-15T03:58:32.861Z,5.33
2019-05-15T04:01:02.850Z,5.70
2019-05-15T04:03:32.830Z,6.78
2019-05-15T04:06:02.894Z,8.35
2019-05-15T04:08:32.921Z,4.80
2019-05-15T04:11:02.914Z,4.85
2019-05-15T04:13:33.649Z,5.12
2019-05-15T04:16:03.741Z,6.55
2019-05-15T04:18:35.274Z,4.90
2019-05-15T04:21:05.397Z,4.85
2019-05-15T04:23:38.821Z,6.25
2019-05-15T04:26:09.260Z,6.37
2019-05-15T04:28:41.923Z,5.17
2019-05-15T04:31:12.381Z,9.18
2019-05-15T04:33:42.386Z,7.28
2019-05-15T04:36:12.304Z,7.75
2019-05-15T04:38:42.329Z,5.70
2019-05-15T04:41:12.331Z,6.80
2019-05-15T04:43:45.006Z,6.25
2019-05-15T04:46:14.405Z,6.95
2019-05-15T04:48:44.516Z,6.95
2019-05-15T04:51:14.580Z,7.45
2019-05-15T04:53:44.693Z,7.22
2019-05-15T04:56:14.656Z,6.25
2019-05-15T04:58:44.660Z,7.65
2019-05-15T05:01:14.751Z,7.22
2019-05-15T05:03:44.677Z,6.78
2019-05-15T05:06:14.651Z,7.35
2019-05-15T05:08:44.814Z,7.53
2019-05-15T05:11:15.206Z,8.73
2019-05-15T05:13:45.366Z,11.88
2019-05-15T05:16:15.576Z,8.48
2019-05-15T05:18:48.583Z,7.05
2019-05-15T05:21:18.377Z,6.37
2019-05-15T05:23:48.658Z,6.22
2019-05-15T05:26:18.811Z,12.25
2019-05-15T05:28:49.942Z,7.75
2019-05-15T05:31:20.015Z,5.95
2019-05-15T05:33:50.421Z,7.15
2019-05-15T05:36:20.440Z,7.20
2019-05-15T05:38:51.435Z,5.83
2019-05-15T05:41:21.345Z,7.17
2019-05-15T05:43:51.366Z,7.28
2019-05-15T05:46:21.406Z,8.63
2019-05-15T05:48:51.432Z,9.05
2019-05-15T05:51:21.493Z,10.70
2019-05-15T05:53:51.552Z,8.15
2019-05-15T05:56:21.507Z,6.92
2019-05-15T05:58:51.512Z,7.72
2019-05-15T06:01:21.514Z,7.50
2019-05-15T06:03:51.498Z,7.53
2019-05-15T06:06:21.491Z,11.00
2019-05-15T06:08:51.553Z,7.45
2019-05-15T06:11:21.544Z,7.30
2019-05-15T06:13:52.643Z,7.67
2019-05-15T06:16:22.792Z,8.30
2019-05-15T06:18:52.759Z,8.25
2019-05-15T06:21:22.751Z,7.65
2019-05-15T06:23:56.068Z,8.28
2019-05-15T06:26:24.607Z,7.90
2019-05-15T06:28:54.588Z,8.83
2019-05-15T06:31:24.617Z,7.87
2019-05-15T06:33:54.639Z,8.45
2019-05-15T06:36:24.669Z,8.68
2019-05-15T06:38:54.757Z,9.58
2019-05-15T06:41:24.686Z,7.87
2019-05-15T06:43:54.725Z,8.55
2019-05-15T06:46:28.193Z,8.33
2019-05-15T06:48:58.259Z,10.58
2019-05-15T06:51:28.920Z,9.65
2019-05-15T06:53:59.063Z,9.23
2019-05-15T06:56:29.065Z,9.53
2019-05-15T06:58:59.125Z,10.60
2019-05-15T07:01:29.568Z,9.85
2019-05-15T07:04:00.752Z,9.08
2019-05-15T07:06:30.832Z,10.15
2019-05-15T07:09:00.862Z,9.75
2019-05-15T07:11:32.563Z,9.10
2019-05-15T07:14:03.410Z,11.28
2019-05-15T07:16:33.615Z,10.48
2019-05-15T07:19:03.570Z,11.22
2019-05-15T07:21:33.523Z,10.05
2019-05-15T07:24:04.626Z,8.68
2019-05-15T07:26:34.539Z,10.50
2019-05-15T07:29:04.515Z,8.68
2019-05-15T07:31:34.487Z,8.03
2019-05-15T07:34:04.606Z,9.55
2019-05-15T07:36:34.617Z,8.58
2019-05-15T07:39:08.389Z,13.45
2019-05-15T07:41:39.161Z,10.45
2019-05-15T07:44:09.501Z,10.40
2019-05-15T07:46:39.488Z,7.25
2019-05-15T07:49:09.493Z,9.03
2019-05-15T07:51:39.514Z,7.10
2019-05-15T07:54:09.473Z,9.18
2019-05-15T07:56:39.478Z,10.45
2019-05-15T07:59:09.468Z,9.80
2019-05-15T08:01:39.488Z,14.30
2019-05-15T08:04:25.231Z,9.78
2019-05-15T08:06:43.934Z,7.95
2019-05-15T08:09:13.962Z,7.08
2019-05-15T08:11:44.068Z,7.37
2019-05-15T08:14:14.792Z,7.92
2019-05-15T08:16:44.757Z,7.85
2019-05-15T08:19:21.887Z,7.20
2019-05-15T08:21:52.131Z,7.17
2019-05-15T08:24:22.183Z,8.70
2019-05-15T08:26:52.183Z,7.15
2019-05-15T08:29:22.111Z,7.42
2019-05-15T08:31:53.147Z,7.40
2019-05-15T08:34:23.104Z,8.18
2019-05-15T08:36:53.248Z,8.83
2019-05-15T08:39:23.268Z,7.40
2019-05-15T08:41:53.260Z,6.85
2019-05-15T08:44:23.328Z,6.05
2019-05-15T08:46:53.271Z,5.20
2019-05-15T08:49:23.262Z,4.80
2019-05-15T08:51:53.187Z,5.75
2019-05-15T08:54:23.231Z,4.30
2019-05-15T08:56:53.252Z,7.12
2019-05-15T08:59:29.515Z,10.45
2019-05-15T09:01:59.879Z,5.85
2019-05-15T09:04:34.470Z,5.25
2019-05-15T09:07:01.658Z,4.97
2019-05-15T09:09:31.657Z,5.45
2019-05-15T09:12:01.586Z,6.08
2019-05-15T09:14:33.588Z,7.55
2019-05-15T09:17:03.640Z,8.08
2019-05-15T09:19:33.608Z,7.55
2019-05-15T09:22:03.741Z,5.60
2019-05-15T09:24:33.848Z,4.95
2019-05-15T09:27:03.881Z,6.05
2019-05-15T09:29:33.834Z,5.60
2019-05-15T09:32:04.300Z,5.90
2019-05-15T09:34:47.790Z,7.25
2019-05-15T09:37:08.432Z,8.38
2019-05-15T09:39:39.262Z,5.53
2019-05-15T09:42:09.208Z,6.25
2019-05-15T09:44:39.290Z,5.87
2019-05-15T09:47:09.381Z,7.03
2019-05-15T09:49:39.351Z,5.15
2019-05-15T09:52:09.298Z,5.17
2019-05-15T09:54:39.223Z,4.30
2019-05-15T09:57:10.978Z,4.40
2019-05-15T09:59:41.194Z,5.25
2019-05-15T10:02:11.436Z,3.40
2019-05-15T10:04:41.515Z,4.00
2019-05-15T10:07:11.706Z,4.62
2019-05-15T10:09:41.665Z,4.12
2019-05-15T10:12:11.766Z,6.62
2019-05-15T10:14:42.050Z,4.90
2019-05-15T10:17:12.459Z,6.53
2019-05-15T10:19:42.493Z,4.35
2019-05-15T10:22:12.604Z,5.30
2019-05-15T10:24:42.634Z,4.20
2019-05-15T10:27:12.661Z,3.85
2019-05-15T10:29:42.706Z,6.17
2019-05-15T10:32:12.864Z,4.03
2019-05-15T10:34:42.847Z,4.67
2019-05-15T10:37:12.832Z,3.67
2019-05-15T10:39:42.747Z,3.77
2019-05-15T10:42:13.036Z,5.03
2019-05-15T10:44:44.034Z,4.40
2019-05-15T10:47:14.089Z,3.87
2019-05-15T10:49:44.087Z,5.70
2019-05-15T10:52:14.158Z,4.78
2019-05-15T10:54:44.109Z,4.35
2019-05-15T10:57:18.856Z,5.40
2019-05-15T10:59:49.082Z,6.33
2019-05-15T11:02:19.365Z,4.42
2019-05-15T11:04:49.723Z,4.35
2019-05-15T11:07:20.158Z,4.87
2019-05-15T11:09:50.156Z,6.28
2019-05-15T11:12:21.929Z,4.80
2019-05-15T11:14:52.290Z,4.30
2019-05-15T11:17:22.264Z,4.70
2019-05-15T11:19:52.278Z,4.92
2019-05-15T11:22:22.436Z,4.97
2019-05-15T11:24:53.111Z,11.22
2019-05-15T11:27:23.318Z,6.47
2019-05-15T11:29:53.270Z,5.00
2019-05-15T11:32:23.312Z,4.67
2019-05-15T11:34:53.439Z,4.65
2019-05-15T11:37:23.761Z,4.90
2019-05-15T11:39:53.987Z,5.42
2019-05-15T11:42:24.229Z,3.92
2019-05-15T11:44:54.446Z,5.95
2019-05-15T11:47:24.552Z,7.40
2019-05-15T11:49:54.475Z,7.75
2019-05-15T11:52:24.725Z,6.40
2019-05-15T11:54:54.661Z,8.43
2019-05-15T11:57:37.324Z,7.40
2019-05-15T11:59:59.432Z,7.70
2019-05-15T12:02:29.307Z,7.97
2019-05-15T12:04:59.283Z,8.63
2019-05-15T12:07:29.301Z,6.45
2019-05-15T12:09:59.318Z,7.72
2019-05-15T12:12:31.957Z,8.30
2019-05-15T12:15:01.179Z,7.33
2019-05-15T12:17:34.080Z,9.25
2019-05-15T12:20:06.596Z,7.95
2019-05-15T12:22:34.654Z,8.85
2019-05-15T12:25:09.633Z,8.10
2019-05-15T12:27:39.994Z,7.53
2019-05-15T12:30:12.392Z,10.30
2019-05-15T12:32:42.403Z,7.67
2019-05-15T12:35:12.480Z,8.30
2019-05-15T12:37:42.602Z,8.43
2019-05-15T13:00:29.916Z,10.58
2019-05-15T13:03:00.106Z,12.25
2019-05-15T13:05:32.463Z,9.38
2019-05-15T13:08:01.650Z,9.78
2019-05-15T13:10:31.615Z,12.63
2019-05-15T13:13:05.359Z,13.70
2019-05-15T13:15:34.061Z,11.50
2019-05-15T13:18:12.711Z,12.70
2019-05-15T13:20:43.387Z,12.68
2019-05-15T13:23:13.228Z,11.40
2019-05-15T13:25:43.134Z,10.85
2019-05-15T13:28:13.103Z,11.80
2019-05-15T13:30:43.395Z,11.68
2019-05-15T13:33:13.756Z,12.18
2019-05-15T13:35:45.622Z,11.95
2019-05-15T13:38:15.388Z,12.78
2019-05-15T13:40:45.341Z,11.55
2019-05-15T13:43:18.641Z,10.80
2019-05-15T13:45:49.234Z,12.88
2019-05-15T13:48:19.977Z,12.35
2019-05-15T13:50:51.460Z,12.70
2019-05-15T13:53:21.503Z,12.33
2019-05-15T13:55:51.549Z,11.78
2019-05-15T13:58:21.579Z,11.33
2019-05-15T14:00:51.554Z,11.97
2019-05-15T14:03:21.939Z,13.38
2019-05-15T14:05:52.081Z,12.50
2019-05-15T14:08:22.063Z,9.20
2019-05-15T14:10:51.967Z,12.78
2019-05-15T14:13:22.031Z,13.30
2019-05-15T14:15:53.608Z,12.20
2019-05-15T14:18:23.626Z,10.38
2019-05-15T14:20:58.484Z,8.83
2019-05-15T14:23:29.681Z,9.58
2019-05-15T14:26:13.072Z,10.65
2019-05-15T14:28:31.401Z,11.45
2019-05-15T14:31:01.440Z,10.55
2019-05-15T14:33:31.630Z,11.63
2019-05-15T14:36:01.987Z,10.32
2019-05-15T14:38:32.026Z,13.05
2019-05-15T14:41:02.042Z,10.48
2019-05-15T14:43:32.022Z,12.05
2019-05-15T14:46:02.239Z,11.55
2019-05-15T14:48:32.250Z,11.85
2019-05-15T14:51:02.302Z,13.15
2019-05-15T14:53:32.355Z,10.72
2019-05-15T14:56:02.414Z,11.63
2019-05-15T14:58:32.409Z,10.90
2019-05-15T15:01:04.050Z,13.38
2019-05-15T15:03:34.391Z,12.88
2019-05-15T15:06:04.818Z,13.35
2019-05-15T15:08:35.034Z,14.15
2019-05-15T15:11:05.281Z,15.05
2019-05-15T15:13:35.381Z,15.28
2019-05-15T15:16:08.439Z,13.18
2019-05-15T15:18:38.620Z,12.88
2019-05-15T15:21:09.960Z,13.53
2019-05-15T15:23:40.033Z,10.78
2019-05-15T15:26:10.256Z,10.55
2019-05-15T15:28:40.433Z,12.55
2019-05-15T15:31:10.483Z,14.18
2019-05-15T15:33:40.531Z,33.48
2019-05-15T15:36:10.737Z,13.25
2019-05-15T15:38:43.899Z,14.18
2019-05-15T15:41:12.511Z,12.30
2019-05-15T15:43:42.523Z,14.50
2019-05-15T15:46:12.601Z,14.55
2019-05-15T15:48:42.650Z,14.13
2019-05-15T15:51:12.697Z,13.50
2019-05-15T15:53:43.067Z,13.40
2019-05-15T15:56:12.766Z,13.15
2019-05-15T15:58:42.646Z,14.85
2019-05-15T16:01:12.616Z,15.40
2019-05-15T16:03:42.657Z,16.27
2019-05-15T16:06:12.655Z,13.78
2019-05-15T16:08:53.126Z,14.87
2019-05-15T16:11:14.549Z,14.18
2019-05-15T16:13:46.330Z,13.62
2019-05-15T16:16:17.952Z,13.85
2019-05-15T16:18:49.130Z,13.93
2019-05-15T16:21:19.498Z,16.32
2019-05-15T16:23:49.599Z,14.70
2019-05-15T16:26:19.687Z,13.30
2019-05-15T16:28:49.739Z,12.90
2019-05-15T16:31:19.807Z,13.90
2019-05-15T16:33:49.509Z,16.80
2019-05-15T16:36:19.371Z,13.10
2019-05-15T16:39:03.705Z,13.70
2019-05-15T16:41:21.170Z,12.82
2019-05-15T16:43:51.232Z,16.52
2019-05-15T16:46:24.186Z,14.00
2019-05-15T16:48:52.611Z,14.10
2019-05-15T16:51:22.482Z,12.90
2019-05-15T16:53:52.721Z,14.18
2019-05-15T16:56:22.411Z,14.40
2019-05-15T16:58:51.952Z,16.65
2019-05-15T17:01:21.924Z,17.92
2019-05-15T17:03:51.946Z,22.20
2019-05-15T17:06:21.971Z,20.52
2019-05-15T17:08:51.973Z,24.30
2019-05-15T17:11:22.155Z,22.30
2019-05-15T17:13:52.183Z,27.85
2019-05-15T17:16:22.930Z,30.55
2019-05-15T17:18:53.022Z,31.90
2019-05-15T17:21:23.030Z,35.33
2019-05-15T17:23:52.987Z,35.00
2019-05-15T17:26:22.603Z,32.90
2019-05-15T17:28:52.497Z,35.40
2019-05-15T17:31:22.532Z,34.40
2019-05-15T17:33:52.199Z,29.77
2019-05-15T17:36:22.174Z,29.80
2019-05-15T17:38:52.099Z,31.95
2019-05-15T17:41:22.274Z,31.23
2019-05-15T17:43:52.420Z,31.05
2019-05-15T17:46:22.474Z,28.70
2019-05-15T17:48:55.470Z,27.40
2019-05-15T17:51:24.391Z,26.40
2019-05-15T17:53:54.525Z,26.90
2019-05-15T17:56:24.563Z,39.00
2019-05-15T17:58:54.705Z,31.68
2019-05-15T18:01:24.735Z,34.27
2019-05-15T18:03:54.736Z,31.80
2019-05-15T18:06:24.733Z,32.53
2019-05-15T18:08:54.676Z,36.73
2019-05-15T18:11:27.837Z,35.80
2019-05-15T18:14:00.602Z,38.90
2019-05-15T18:16:31.413Z,40.17
2019-05-15T18:19:03.376Z,34.43
2019-05-15T18:21:33.265Z,31.27
2019-05-15T18:24:03.210Z,29.35
2019-05-15T18:26:33.265Z,31.80
2019-05-15T18:29:03.254Z,30.72
2019-05-15T18:31:33.480Z,37.28
2019-05-15T18:34:03.521Z,29.07
2019-05-15T18:36:33.106Z,35.33
2019-05-15T18:39:03.292Z,41.77
2019-05-15T18:41:34.176Z,40.35
2019-05-15T18:44:04.163Z,43.68
2019-05-15T18:46:34.198Z,43.28
2019-05-15T18:49:04.926Z,48.50
2019-05-15T18:51:34.982Z,46.20
2019-05-15T18:54:05.413Z,45.63
2019-05-15T18:56:35.445Z,42.10
2019-05-15T18:59:05.538Z,46.35
2019-05-15T19:01:35.262Z,46.88
2019-05-15T19:04:08.719Z,42.55
2019-05-15T19:06:38.469Z,52.73
2019-05-15T19:09:09.129Z,48.33
2019-05-15T19:11:39.148Z,52.45
2019-05-15T19:14:09.182Z,49.53
2019-05-15T19:16:40.000Z,55.58
2019-05-15T19:19:09.947Z,48.65
2019-05-15T19:21:39.542Z,48.95
2019-05-15T19:24:09.665Z,52.98
2019-05-15T19:26:39.623Z,53.58
2019-05-15T19:29:09.639Z,55.28
2019-05-15T19:31:39.738Z,53.95
2019-05-15T19:34:10.954Z,55.25
2019-05-15T19:36:40.676Z,49.35
2019-05-15T19:39:10.600Z,50.28
2019-05-15T19:41:40.314Z,53.58
2019-05-15T19:44:10.200Z,51.40
2019-05-15T19:46:40.213Z,52.10
2019-05-15T19:49:10.711Z,55.28
2019-05-15T19:51:40.971Z,53.78
2019-05-15T19:54:11.088Z,47.95
2019-05-15T19:56:41.114Z,48.85
2019-05-15T19:59:10.821Z,51.23
2019-05-15T20:01:40.854Z,45.03
2019-05-15T20:04:10.639Z,43.33
2019-05-15T20:06:41.202Z,50.80
2019-05-15T20:09:11.235Z,48.90
2019-05-15T20:11:41.312Z,53.38
2019-05-15T20:14:11.348Z,51.55
2019-05-15T20:16:42.371Z,49.93
2019-05-15T20:19:12.420Z,50.15
2019-05-15T20:21:42.663Z,48.65
2019-05-15T20:24:13.661Z,49.15
2019-05-15T20:26:43.700Z,49.20
2019-05-15T20:29:14.975Z,109.78
2019-05-15T20:31:44.934Z,50.67
2019-05-15T20:34:14.928Z,49.33
2019-05-15T20:36:45.267Z,50.05
2019-05-15T20:39:15.286Z,52.25
2019-05-15T20:41:45.338Z,48.73
2019-05-15T20:44:15.390Z,50.08
2019-05-15T20:46:48.367Z,52.67
2019-05-15T20:49:17.911Z,47.13
2019-05-15T20:51:48.939Z,51.98
2019-05-15T20:54:19.075Z,50.70
2019-05-15T20:56:49.321Z,53.08
2019-05-15T20:59:19.459Z,52.65
2019-05-15T21:01:50.910Z,53.25
2019-05-15T21:04:23.828Z,54.08
2019-05-15T21:06:52.874Z,54.60
2019-05-15T21:09:22.889Z,54.77
2019-05-15T21:11:53.050Z,57.25
2019-05-15T21:14:24.297Z,55.78
2019-05-15T21:16:55.268Z,54.35
2019-05-15T21:19:25.199Z,55.88
2019-05-15T21:21:55.591Z,53.65
2019-05-15T21:24:25.714Z,52.43
2019-05-15T21:26:58.053Z,53.08
2019-05-15T21:29:27.308Z,54.73
2019-05-15T21:31:58.008Z,52.53
2019-05-15T21:34:36.892Z,48.87
2019-05-15T21:36:59.847Z,48.63
2019-05-15T21:39:30.283Z,49.60
2019-05-15T21:42:00.487Z,47.80
2019-05-15T21:44:30.491Z,56.98
2019-05-15T21:47:00.463Z,51.77
2019-05-15T21:49:30.494Z,50.43
2019-05-15T21:52:00.700Z,50.43
2019-05-15T21:54:30.734Z,46.68
2019-05-15T21:57:18.896Z,47.40
2019-05-15T21:59:32.473Z,47.10
2019-05-15T22:02:02.563Z,49.00
2019-05-15T22:04:32.503Z,46.98
2019-05-15T22:07:02.480Z,45.00
2019-05-15T22:09:32.705Z,48.55
2019-05-15T22:12:03.109Z,46.05
2019-05-15T22:14:33.163Z,44.77
2019-05-15T22:20:25.241Z,49.25
2019-05-15T22:22:55.493Z,43.90
2019-05-15T22:25:28.037Z,41.37
2019-05-15T22:27:58.071Z,44.27
2019-05-15T22:30:30.353Z,48.20
2019-05-15T22:33:00.215Z,46.83
2019-05-15T22:35:30.509Z,46.83
2019-05-15T22:38:00.714Z,49.85
2019-05-15T22:40:30.880Z,49.53
2019-05-15T22:43:01.255Z,46.77
2019-05-15T22:45:31.606Z,45.78
2019-05-15T22:48:01.928Z,51.80
2019-05-15T22:50:32.229Z,52.50
2019-05-15T22:53:02.511Z,55.80
2019-05-15T22:55:32.823Z,53.28
2019-05-15T22:58:04.289Z,54.10
2019-05-15T23:00:34.578Z,54.75
2019-05-15T23:03:05.066Z,52.98
2019-05-15T23:05:35.399Z,54.65
2019-05-15T23:08:05.549Z,48.20
2019-05-15T23:10:37.902Z,48.33
2019-05-15T23:13:07.717Z,50.92
2019-05-15T23:15:38.596Z,51.60
2019-05-15T23:18:09.083Z,51.10
2019-05-15T23:20:43.673Z,52.40
2019-05-15T23:23:14.145Z,47.83
2019-05-15T23:25:44.436Z,49.00
2019-05-15T23:28:14.880Z,45.78
2019-05-15T23:30:45.176Z,43.63
2019-05-15T23:33:15.429Z,46.75
2019-05-15T23:35:48.366Z,47.08
2019-05-15T23:38:17.815Z,47.08
2019-05-15T23:40:48.437Z,50.98
2019-05-15T23:43:19.064Z,47.60
2019-05-15T23:45:49.328Z,53.65
2019-05-15T23:48:19.779Z,44.08
2019-05-15T23:50:49.998Z,43.80
2019-05-15T23:53:20.300Z,49.30
2019-05-15T23:55:50.444Z,44.95
2019-05-15T23:58:20.756Z,42.20
